Time;durP1;ratioP1;P1;durP2;ratioP2;P2;SDS_P1;SDS_P2;PMS_P1;PMS_P2;Temp;Humidity;BMP_temperature;BMP_pressure;BME280_temperature;BME280_humidity;BME280_pressure;Samples;Min_cycle;Max_cycle;Signal;HPM_P1;HPM_P2
2021/12/16 00:09:13;;;;;;;0.40;0.38;;;20.30;27.00;20.70;95362.00;;;;10276846;28;45515;-63
2021/12/16 00:35:37;;;;;;;0.30;0.20;;;20.30;27.00;20.70;95339.00;;;;10275627;28;45163;-63
2021/12/16 00:40:40;;;;;;;0.32;0.32;;;20.30;27.00;20.70;95343.00;;;;10275153;28;45231;-63
2021/12/16 00:45:56;;;;;;;0.32;0.32;;;20.30;27.00;20.70;95333.00;;;;10276503;28;47012;-63
2021/12/16 00:55:59;;;;;;;0.43;0.40;;;20.30;27.00;20.70;95344.00;;;;10276394;28;45503;-63
2021/12/16 01:01:13;;;;;;;0.40;0.40;;;20.30;27.00;20.70;95325.00;;;;10275270;28;45259;-64
2021/12/16 01:59:32;;;;;;;0.32;0.32;;;20.20;27.40;20.60;95321.00;;;;10175692;28;46168;-64
2021/12/16 02:04:41;;;;;;;0.30;0.30;;;20.20;26.90;20.60;95319.00;;;;10252194;28;46980;-64
2021/12/16 02:09:45;;;;;;;0.47;0.40;;;20.20;26.90;20.60;95316.00;;;;10274100;28;46725;-64
2021/12/16 02:36:26;;;;;;;0.30;0.30;;;20.10;26.80;20.60;95325.00;;;;10272827;28;45188;-63
2021/12/16 02:41:28;;;;;;;0.30;0.30;;;20.20;26.90;20.60;95320.00;;;;10273152;28;45238;-63
2021/12/16 02:51:49;;;;;;;0.30;0.30;;;20.10;26.90;20.60;95313.00;;;;10272193;28;45224;-63
2021/12/16 02:56:50;;;;;;;0.40;0.35;;;20.10;26.90;20.60;95318.00;;;;10270242;28;46889;-63
2021/12/16 03:01:54;;;;;;;0.47;0.40;;;20.10;26.90;20.60;95304.00;;;;10272347;28;45194;-64
2021/12/16 03:06:57;;;;;;;0.47;0.40;;;20.10;26.90;20.60;95328.00;;;;10271504;28;45571;-64
2021/12/16 03:17:41;;;;;;;0.45;0.40;;;20.10;26.90;20.60;95312.00;;;;10272132;28;45148;-63
2021/12/16 03:33:29;;;;;;;0.43;0.40;;;20.10;26.90;20.50;95304.00;;;;10270697;28;45692;-63
2021/12/16 03:38:34;;;;;;;0.30;0.30;;;20.10;26.90;20.50;95312.00;;;;10270015;28;45173;-63
2021/12/16 03:43:37;;;;;;;0.47;0.30;;;20.10;26.90;20.50;95307.00;;;;10303004;28;47124;-63
2021/12/16 03:49:14;;;;;;;0.40;0.40;;;20.10;26.90;20.50;95312.00;;;;10269974;28;45314;-63
2021/12/16 03:54:17;;;;;;;;;;;20.10;26.90;20.50;95331.00;;;;10270998;28;47265;-63
2021/12/16 03:59:24;;;;;;;0.30;0.30;;;20.10;26.90;20.50;95331.00;;;;10270941;28;45285;-64
2021/12/16 04:04:25;;;;;;;0.30;0.30;;;20.10;26.80;20.50;95312.00;;;;10269885;28;46519;-63
2021/12/16 04:09:26;;;;;;;0.77;0.40;;;20.10;26.80;20.50;95309.00;;;;10269185;28;45322;-63
2021/12/16 04:14:27;;;;;;;0.50;0.40;;;20.10;26.90;20.50;95304.00;;;;10276023;28;46581;-63
2021/12/16 04:19:30;;;;;;;0.43;0.40;;;20.00;26.90;20.50;95336.00;;;;10276323;28;45325;-63
2021/12/16 04:24:33;;;;;;;0.50;0.43;;;20.10;26.90;20.50;95314.00;;;;10276025;28;46024;-64
2021/12/16 04:29:34;;;;;;;0.88;0.50;;;20.10;26.90;20.50;95321.00;;;;10291445;28;47032;-63
2021/12/16 04:34:35;;;;;;;0.30;0.30;;;20.10;26.90;20.50;95338.00;;;;10275645;28;45424;-63
2021/12/16 04:39:40;;;;;;;0.30;0.30;;;20.10;26.90;20.50;95322.00;;;;10274952;28;45259;-63
2021/12/16 04:44:43;;;;;;;0.40;0.40;;;20.10;26.90;20.50;95322.00;;;;10275102;28;47479;-64
2021/12/16 04:49:44;;;;;;;0.30;0.30;;;20.10;27.40;20.50;95333.00;;;;10275048;28;45388;-63
2021/12/16 04:54:45;;;;;;;0.80;0.50;;;20.10;26.90;20.50;95335.00;;;;10275385;28;46465;-63
2021/12/16 04:59:46;;;;;;;0.50;0.40;;;20.10;26.90;20.50;95338.00;;;;10274378;28;45415;-63
2021/12/16 05:04:48;;;;;;;0.25;0.25;;;20.10;26.90;20.50;95337.00;;;;10274440;28;46793;-64
2021/12/16 05:10:07;;;;;;;0.63;0.38;;;20.10;26.90;20.60;95348.00;;;;10274179;28;46816;-63
2021/12/16 05:15:13;;;;;;;0.40;0.30;;;20.10;26.90;20.60;95351.00;;;;10275056;28;45568;-63
2021/12/16 05:20:24;;;;;;;0.30;0.30;;;20.10;27.00;20.60;95363.00;;;;10273156;28;48077;-64
2021/12/16 05:25:43;;;;;;;0.20;0.20;;;20.20;27.00;20.60;95358.00;;;;10273806;28;45395;-64
2021/12/16 05:30:44;;;;;;;0.30;0.30;;;20.20;27.00;20.70;95372.00;;;;10276380;28;47176;-63
2021/12/16 05:35:48;;;;;;;0.32;0.30;;;20.20;26.90;20.70;95379.00;;;;10273624;28;45584;-64
2021/12/16 05:40:49;;;;;;;0.52;0.40;;;20.20;26.90;20.70;95380.00;;;;10273242;28;46945;-63
2021/12/16 05:45:53;;;;;;;0.90;0.43;;;20.20;26.90;20.70;95381.00;;;;10273317;28;45424;-63
2021/12/16 05:51:02;;;;;;;0.20;0.20;;;20.30;26.90;20.80;95382.00;;;;10273280;28;46173;-63
2021/12/16 05:56:05;;;;;;;0.30;0.22;;;20.30;26.80;20.80;95397.00;;;;10273243;28;45180;-63
2021/12/16 06:01:14;;;;;;;0.38;0.38;;;20.30;26.90;20.80;95406.00;;;;10272707;28;47131;-64
2021/12/16 06:06:16;;;;;;;0.20;0.20;;;20.30;26.80;20.70;95415.00;;;;10256284;28;47787;-63
2021/12/16 06:11:23;;;;;;;0.50;0.30;;;20.30;26.80;20.80;95395.00;;;;10274090;28;46100;-63
2021/12/16 06:27:14;;;;;;;0.38;0.38;;;20.30;26.70;20.80;95405.00;;;;10273156;28;45225;-62
2021/12/16 06:32:16;;;;;;;0.20;0.20;;;20.40;26.70;20.80;95418.00;;;;10273474;28;47314;-63
2021/12/16 06:37:17;;;;;;;0.30;0.30;;;20.40;26.60;20.80;95423.00;;;;10270797;28;48196;-63
2021/12/16 06:42:18;;;;;;;0.25;0.22;;;20.40;26.60;20.80;95434.00;;;;10273447;28;45325;-63
2021/12/16 06:47:26;;;;;;;0.32;0.30;;;20.40;26.60;20.80;95439.00;;;;10271953;28;45480;-62
2021/12/16 06:52:34;;;;;;;0.40;0.30;;;20.40;26.60;20.80;95439.00;;;;10272181;28;46253;-63
2021/12/16 06:57:43;;;;;;;0.20;0.20;;;20.40;26.50;20.80;95450.00;;;;10271868;28;45463;-63
2021/12/16 07:08:04;;;;;;;0.52;0.30;;;20.40;26.50;20.90;95452.00;;;;10271289;28;46066;-63
2021/12/16 07:13:16;;;;;;;0.30;0.20;;;20.40;26.50;20.90;95446.00;;;;10271427;28;46511;-63
2021/12/16 07:18:16;;;;;;;0.50;0.38;;;20.40;26.40;20.90;95448.00;;;;10271123;28;45167;-63
2021/12/16 07:23:18;;;;;;;0.30;0.30;;;20.40;26.40;20.90;95437.00;;;;10271223;28;45300;-64
2021/12/16 07:28:18;;;;;;;0.50;0.20;;;20.40;26.50;20.90;95463.00;;;;10271631;28;45602;-63
2021/12/16 07:33:19;;;;;;;0.35;0.30;;;20.40;26.40;20.90;95462.00;;;;10272224;28;45667;-64
2021/12/16 07:38:21;;;;;;;1.55;0.40;;;20.40;26.40;20.90;95463.00;;;;10270750;28;45200;-63
2021/12/16 07:48:44;;;;;;;0.88;0.32;;;20.50;26.60;21.00;95475.00;;;;10275309;28;45063;-63
2021/12/16 07:53:45;;;;;;;1.55;0.77;;;20.50;26.70;20.90;95481.00;;;;10277515;28;47527;-63
2021/12/16 07:58:46;;;;;;;4.35;1.70;;;20.50;26.80;20.80;95459.00;;;;10261001;28;46981;-64
2021/12/16 08:03:47;;;;;;;4.18;1.88;;;20.40;26.50;20.80;95476.00;;;;10278640;28;45224;-64
2021/12/16 08:08:55;;;;;;;5.78;1.90;;;20.40;26.50;20.90;95477.00;;;;10277515;28;45215;-63
2021/12/16 08:13:55;;;;;;;3.85;1.83;;;20.40;26.50;20.90;95489.00;;;;10276827;28;45226;-64
2021/12/16 08:18:57;;;;;;;4.07;1.80;;;20.40;26.40;20.90;95483.00;;;;10292651;28;47228;-64
2021/12/16 08:24:02;;;;;;;4.03;1.88;;;20.40;26.50;20.90;95475.00;;;;10276965;28;45494;-64
2021/12/16 08:29:04;;;;;;;2.83;1.63;;;20.40;26.50;20.90;95480.00;;;;10276142;28;45223;-64
2021/12/16 08:34:05;;;;;;;4.35;1.90;;;20.50;26.60;21.00;95488.00;;;;10273721;28;45271;-67
2021/12/16 08:39:08;;;;;;;3.60;1.80;;;20.50;26.60;21.10;95493.00;;;;10290508;28;46841;-65
2021/12/16 08:44:09;;;;;;;3.83;2.00;;;20.50;26.70;21.10;95493.00;;;;10291780;28;47393;-67
2021/12/16 08:49:11;;;;;;;3.28;1.90;;;20.60;26.80;21.10;95515.00;;;;10308279;28;45459;-66
2021/12/16 08:54:12;;;;;;;3.95;1.80;;;20.60;26.90;21.10;95503.00;;;;10308459;28;45287;-65
2021/12/16 08:59:14;;;;;;;4.38;2.00;;;20.60;26.90;21.10;95484.00;;;;10306914;28;48147;-65
2021/12/16 09:04:16;;;;;;;2.97;1.42;;;20.70;26.90;21.10;95509.00;;;;10308059;28;45260;-65
2021/12/16 09:09:17;;;;;;;2.75;1.48;;;20.60;26.80;21.10;95525.00;;;;10289828;28;47146;-65
2021/12/16 09:14:18;;;;;;;3.60;1.77;;;20.60;26.80;21.10;95513.00;;;;10274927;28;45361;-65
2021/12/16 09:19:20;;;;;;;3.55;1.83;;;20.70;26.80;21.10;95528.00;;;;10274204;28;45621;-65
2021/12/16 09:24:21;;;;;;;3.10;1.55;;;20.70;26.90;21.20;95527.00;;;;10271501;28;45498;-64
2021/12/16 09:29:21;;;;;;;2.22;1.20;;;20.70;27.10;21.30;95539.00;;;;10273691;28;46643;-62
2021/12/16 09:34:22;;;;;;;2.70;1.40;;;20.80;27.40;21.30;95528.00;;;;10262677;28;47214;-63
2021/12/16 09:39:25;;;;;;;5.03;1.40;;;20.80;27.60;21.30;95557.00;;;;10265462;28;45789;-64
2021/12/16 09:44:28;;;;;;;1.75;0.90;;;20.80;27.40;21.30;95553.00;;;;10265205;28;47865;-63
2021/12/16 09:49:29;;;;;;;2.47;0.93;;;20.80;27.30;21.30;95542.00;;;;10232878;28;46316;-61
2021/12/16 09:54:33;;;;;;;2.55;1.15;;;20.80;27.40;21.30;95554.00;;;;10264686;28;46399;-62
2021/12/16 09:59:35;;;;;;;1.52;0.90;;;20.80;27.20;21.30;95566.00;;;;10264385;28;45615;-62
2021/12/16 10:04:37;;;;;;;2.00;0.80;;;20.80;27.30;21.30;95559.00;;;;10263531;28;48406;-62
2021/12/16 10:09:38;;;;;;;2.75;0.80;;;20.80;27.20;21.40;95549.00;;;;10230701;28;45312;-62
2021/12/16 10:20:22;;;;;;;1.42;0.63;;;20.90;27.20;21.40;95554.00;;;;10271916;28;45286;-62
2021/12/16 10:25:31;;;;;;;1.17;0.68;;;20.90;27.30;21.40;95557.00;;;;10287474;28;47338;-62
2021/12/16 10:31:02;;;;;;;1.52;0.85;;;20.90;27.20;21.40;95530.00;;;;10272257;28;45294;-61
2021/12/16 10:36:18;;;;;;;1.60;0.70;;;20.90;27.20;21.40;95530.00;;;;10271398;28;45311;-61
2021/12/16 10:41:31;;;;;;;1.63;0.70;;;20.90;27.20;21.40;95528.00;;;;10270570;28;45182;-61
2021/12/16 10:46:42;;;;;;;1.20;0.60;;;20.90;27.20;21.40;95508.00;;;;10273118;28;45207;-70
2021/12/16 10:51:49;;;;;;;1.52;0.55;;;20.90;27.40;21.40;95523.00;;;;10272026;28;46506;-65
2021/12/16 10:57:00;;;;;;;1.15;0.43;;;20.90;27.30;21.40;95515.00;;;;10269891;28;45223;-64
2021/12/16 11:02:20;;;;;;;1.38;0.65;;;20.90;27.30;21.40;95520.00;;;;10270712;28;46976;-64
2021/12/16 11:07:42;;;;;;;1.30;0.60;;;20.90;27.50;21.40;95523.00;;;;10269735;28;47995;-64
2021/12/16 11:13:01;;;;;;;1.05;0.65;;;20.90;27.50;21.40;95521.00;;;;10270650;28;46610;-66
2021/12/16 11:18:16;;;;;;;0.70;0.50;;;21.00;27.30;21.50;95522.00;;;;10253056;28;47339;-61
2021/12/16 11:23:34;;;;;;;1.73;0.60;;;21.00;27.30;21.50;95526.00;;;;10275665;28;46161;-62
2021/12/16 11:28:44;;;;;;;1.55;0.60;;;21.00;27.30;21.40;95517.00;;;;10276852;28;46230;-62
2021/12/16 11:33:51;;;;;;;2.00;0.60;;;20.90;27.30;21.40;95524.00;;;;10277511;28;45321;-62
2021/12/16 11:38:59;;;;;;;2.40;0.52;;;20.90;27.30;21.40;95522.00;;;;10276381;28;47222;-62
2021/12/16 11:44:09;;;;;;;1.05;0.40;;;20.90;27.20;21.30;95514.00;;;;10279112;28;45214;-62
2021/12/16 11:49:30;;;;;;;1.00;0.50;;;20.90;27.20;21.30;95514.00;;;;10260167;28;47312;-62
2021/12/16 11:54:48;;;;;;;1.15;0.50;;;20.90;27.20;21.30;95514.00;;;;10278040;28;45284;-61
2021/12/16 11:59:58;;;;;;;0.80;0.47;;;20.80;27.10;21.30;95495.00;;;;10277965;28;45528;-61
2021/12/16 12:05:21;;;;;;;0.73;0.32;;;20.80;27.10;21.30;95499.00;;;;10310004;28;47247;-62
2021/12/16 12:10:44;;;;;;;0.70;0.50;;;20.80;27.10;21.30;95508.00;;;;10308341;28;47085;-62
2021/12/16 12:16:12;;;;;;;0.47;0.30;;;20.80;27.00;21.30;95489.00;;;;10277621;28;45220;-62
2021/12/16 12:21:34;;;;;;;1.00;0.40;;;20.80;27.10;21.40;95511.00;;;;10276179;28;45226;-62
2021/12/16 12:26:53;;;;;;;1.00;0.57;;;20.80;27.10;21.30;95493.00;;;;10275533;28;45452;-62
2021/12/16 12:31:59;;;;;;;0.80;0.60;;;20.80;27.00;21.30;95495.00;;;;10275380;28;45314;-62
2021/12/16 12:37:08;;;;;;;2.60;0.52;;;20.90;27.00;21.30;95493.00;;;;10274643;28;47188;-62
2021/12/16 12:42:11;;;;;;;1.30;0.60;;;20.80;27.00;21.30;95477.00;;;;10275411;28;45517;-62
2021/12/16 12:47:21;;;;;;;1.17;0.45;;;20.80;27.00;21.30;95478.00;;;;10276404;28;45497;-62
2021/12/16 12:52:24;;;;;;;0.68;0.40;;;20.80;27.00;21.30;95504.00;;;;10274995;28;45594;-62
2021/12/16 12:57:32;;;;;;;2.50;0.70;;;20.80;27.00;21.30;95511.00;;;;10274034;28;45406;-61
2021/12/16 13:02:38;;;;;;;1.55;0.60;;;20.80;27.00;21.30;95485.00;;;;10274624;28;45352;-62
2021/12/16 13:07:44;;;;;;;1.58;0.70;;;20.80;27.00;21.30;95497.00;;;;10274270;28;45247;-62
2021/12/16 13:12:56;;;;;;;1.30;0.63;;;20.80;27.10;21.30;95476.00;;;;10276479;28;45491;-62
2021/12/16 13:23:28;;;;;;;1.80;0.93;;;20.80;27.10;21.30;95486.00;;;;10273522;28;45129;-62
2021/12/16 13:28:42;;;;;;;1.70;0.77;;;20.80;27.10;21.30;95481.00;;;;10273714;28;45427;-62
2021/12/16 13:33:53;;;;;;;3.38;1.30;;;20.80;27.40;21.30;95476.00;;;;10275005;28;45291;-62
2021/12/16 13:38:55;;;;;;;2.60;1.42;;;20.80;27.30;21.30;95476.00;;;;10290486;28;47003;-62
2021/12/16 13:44:09;;;;;;;6.05;2.08;;;20.80;27.30;21.30;95467.00;;;;10271686;28;47502;-63
2021/12/16 14:10:57;;;;;;;2.65;1.40;;;20.80;27.40;21.30;95478.00;;;;10230002;28;45251;-62
2021/12/16 14:26:41;;;;;;;3.17;1.15;;;20.90;27.60;21.40;95495.00;;;;10261994;28;45569;-64
2021/12/16 14:42:34;;;;;;;3.83;1.40;;;20.90;28.00;21.40;95506.00;;;;10272367;28;45107;-63
2021/12/16 14:53:29;;;;;;;4.03;1.42;;;20.90;27.60;21.30;95490.00;;;;10271945;28;45349;-63
2021/12/16 14:58:30;;;;;;;2.03;1.10;;;20.90;27.40;21.40;95484.00;;;;10302916;28;48393;-63
2021/12/16 15:03:37;;;;;;;3.63;1.30;;;20.90;27.40;21.40;95493.00;;;;10266554;28;45674;-64
2021/12/16 15:13:52;;;;;;;1.33;0.80;;;21.00;27.60;21.40;95513.00;;;;10271060;28;45438;-64
2021/12/16 15:40:31;;;;;;;0.98;0.70;;;20.90;27.50;21.30;95481.00;;;;10270916;28;45251;-64
2021/12/16 15:45:42;;;;;;;1.77;0.98;;;20.80;27.40;21.30;95495.00;;;;10286262;28;48189;-64
2021/12/16 15:51:05;;;;;;;1.83;1.10;;;20.80;27.50;21.40;95512.00;;;;10254050;28;48256;-64
2021/12/16 15:56:14;;;;;;;2.08;1.15;;;20.80;27.40;21.40;95515.00;;;;10259108;28;46500;-64
2021/12/16 16:01:52;;;;;;;2.50;0.98;;;20.90;27.50;21.40;95503.00;;;;10266383;28;47552;-65
2021/12/16 16:07:08;;;;;;;1.88;1.00;;;20.90;27.60;21.40;95516.00;;;;10269941;28;45408;-63
2021/12/16 16:12:17;;;;;;;2.40;0.70;;;20.90;27.70;21.50;95517.00;;;;10276262;28;46348;-63
2021/12/16 16:17:22;;;;;;;1.65;0.80;;;21.00;27.80;21.50;95525.00;;;;10308221;28;46470;-64
2021/12/16 16:22:23;;;;;;;1.77;0.93;;;21.00;27.80;21.50;95527.00;;;;10308649;28;46348;-63
2021/12/16 16:27:28;;;;;;;1.42;0.88;;;21.00;27.80;21.50;95503.00;;;;10276664;28;45467;-61
2021/12/16 16:33:01;;;;;;;1.30;0.90;;;21.00;27.90;21.50;95524.00;;;;10275986;28;45236;-62
2021/12/16 16:38:12;;;;;;;1.40;0.80;;;21.00;27.90;21.50;95517.00;;;;10276150;28;45362;-62
2021/12/16 16:43:19;;;;;;;1.50;0.80;;;21.10;27.90;21.60;95521.00;;;;10259178;28;48060;-63
2021/12/16 16:48:52;;;;;;;1.13;0.85;;;21.10;27.90;21.50;95520.00;;;;10276622;28;46501;-63
2021/12/16 16:54:30;;;;;;;2.63;0.95;;;21.10;27.90;21.60;95534.00;;;;10273607;28;46004;-63
2021/12/16 16:59:42;;;;;;;1.30;0.90;;;21.10;27.90;21.60;95525.00;;;;10266384;28;47382;-63
2021/12/16 17:04:47;;;;;;;1.38;0.90;;;21.10;27.90;21.60;95524.00;;;;10307704;28;47142;-62
2021/12/16 17:09:48;;;;;;;1.40;0.82;;;21.10;27.90;21.60;95516.00;;;;10274402;28;46279;-62
2021/12/16 17:15:00;;;;;;;1.65;1.10;;;21.10;27.90;21.60;95530.00;;;;10290654;28;47876;-64
2021/12/16 17:20:13;;;;;;;1.10;0.88;;;21.10;27.90;21.60;95534.00;;;;10273876;28;46173;-63
2021/12/16 17:25:15;;;;;;;1.77;0.80;;;21.10;27.80;21.60;95528.00;;;;10273841;28;47759;-63
2021/12/16 17:30:25;;;;;;;1.00;0.75;;;21.10;27.80;21.60;95520.00;;;;10271954;28;47325;-65
2021/12/16 17:35:38;;;;;;;1.25;0.80;;;21.10;27.90;21.60;95534.00;;;;10273253;28;46985;-64
2021/12/16 17:40:43;;;;;;;1.65;0.82;;;21.10;28.00;21.60;95531.00;;;;10273777;28;45338;-63
2021/12/16 17:46:00;;;;;;;1.20;0.75;;;21.10;27.80;21.60;95547.00;;;;10273653;28;45414;-67
2021/12/16 17:51:13;;;;;;;1.13;0.60;;;21.10;27.80;21.60;95532.00;;;;10274033;28;45358;-64
2021/12/16 17:56:15;;;;;;;1.33;0.90;;;21.10;27.80;21.50;95538.00;;;;10273125;28;46946;-62
2021/12/16 18:01:20;;;;;;;0.70;0.60;;;21.10;26.70;21.40;95530.00;;;;10273628;28;46390;-61
2021/12/16 18:06:29;;;;;;;0.80;0.70;;;21.00;26.70;21.50;95543.00;;;;10273355;28;45600;-62
2021/12/16 18:11:35;;;;;;;0.70;0.50;;;21.00;26.90;21.50;95526.00;;;;10273388;28;45117;-61
2021/12/16 18:16:47;;;;;;;0.57;0.55;;;21.00;27.10;21.50;95547.00;;;;10274091;28;45555;-62
2021/12/16 18:21:52;;;;;;;0.98;0.63;;;21.00;27.20;21.50;95539.00;;;;10273249;28;46373;-62
2021/12/16 18:26:53;;;;;;;1.58;0.80;;;21.00;27.20;21.50;95532.00;;;;10271747;28;46822;-62
2021/12/16 18:31:54;;;;;;;1.15;0.70;;;21.00;27.30;21.40;95551.00;;;;10271358;28;45171;-62
2021/12/16 18:37:09;;;;;;;1.27;0.70;;;20.90;27.20;21.40;95544.00;;;;10270482;28;45336;-62
2021/12/16 18:42:17;;;;;;;1.02;0.60;;;20.90;27.30;21.50;95551.00;;;;10272551;28;45433;-62
2021/12/16 18:47:37;;;;;;;1.42;0.80;;;20.90;27.20;21.50;95545.00;;;;10271815;28;45193;-63
2021/12/16 18:54:27;;;;;;;1.02;0.80;;;20.90;27.30;21.40;95527.00;;;;10273254;28;45315;-62
2021/12/16 18:58:08;;;;;;;0.80;0.80;;;20.90;27.30;21.40;95514.00;;;;10270939;28;45231;-62
2021/12/16 19:03:10;;;;;;;0.70;0.70;;;20.90;27.20;21.40;95539.00;;;;10272946;28;45319;-62
2021/12/16 19:08:12;;;;;;;1.38;0.88;;;20.90;27.20;21.40;95518.00;;;;10272473;28;46163;-63
2021/12/16 19:13:19;;;;;;;1.25;0.80;;;20.90;27.20;21.40;95516.00;;;;10304232;28;48051;-62
2021/12/16 19:18:20;;;;;;;2.15;0.88;;;20.90;27.20;21.40;95546.00;;;;10270516;28;46080;-62
2021/12/16 19:23:23;;;;;;;1.27;0.80;;;20.90;27.20;21.40;95551.00;;;;10271637;28;45691;-62
2021/12/16 19:28:25;;;;;;;0.93;0.82;;;20.90;27.20;21.40;95544.00;;;;10270590;28;45990;-62
2021/12/16 19:33:29;;;;;;;1.00;0.80;;;20.90;27.10;21.40;95535.00;;;;10270909;28;45159;-62
2021/12/16 19:38:30;;;;;;;1.05;0.90;;;20.90;27.10;21.40;95545.00;;;;10269858;28;46426;-61
2021/12/16 19:43:31;;;;;;;0.98;0.85;;;20.90;27.10;21.40;95520.00;;;;10275079;28;46098;-61
2021/12/16 19:48:34;;;;;;;1.30;0.90;;;20.90;27.10;21.40;95519.00;;;;10276573;28;47160;-62
2021/12/16 19:53:35;;;;;;;1.42;1.17;;;20.90;27.10;21.40;95536.00;;;;10277504;28;47023;-62
2021/12/16 19:58:39;;;;;;;1.40;0.90;;;20.90;27.10;21.40;95525.00;;;;10276943;28;45382;-62
2021/12/16 20:03:47;;;;;;;1.98;1.00;;;20.90;27.20;21.40;95537.00;;;;10276402;28;45219;-61
2021/12/16 20:08:49;;;;;;;1.48;1.08;;;20.90;27.20;21.40;95530.00;;;;10260222;28;47230;-61
2021/12/16 20:13:52;;;;;;;2.22;0.93;;;20.90;27.20;21.40;95522.00;;;;10277466;28;46654;-61
2021/12/16 20:18:56;;;;;;;1.08;0.82;;;20.90;27.10;21.40;95518.00;;;;10276540;28;45412;-61
2021/12/16 20:24:00;;;;;;;1.23;0.80;;;20.90;27.20;21.40;95527.00;;;;10276809;28;45646;-61
2021/12/16 20:29:32;;;;;;;0.95;0.70;;;20.90;27.10;21.40;95538.00;;;;10276188;28;45443;-61
2021/12/16 20:34:52;;;;;;;0.82;0.80;;;20.90;27.10;21.40;95527.00;;;;10275612;28;45388;-61
2021/12/16 20:40:01;;;;;;;1.30;0.90;;;20.90;27.10;21.40;95521.00;;;;10275580;28;45307;-62
2021/12/16 20:45:19;;;;;;;1.20;0.80;;;20.90;27.10;21.40;95508.00;;;;10275924;28;46923;-61
2021/12/16 20:50:25;;;;;;;1.38;0.75;;;20.90;27.10;21.40;95514.00;;;;10276254;28;46761;-61
2021/12/16 20:55:28;;;;;;;0.80;0.70;;;20.90;27.10;21.40;95506.00;;;;10274758;28;46277;-62
2021/12/16 21:00:31;;;;;;;1.38;0.90;;;20.90;27.10;21.40;95517.00;;;;10275991;28;45221;-61
2021/12/16 21:05:39;;;;;;;1.08;0.90;;;20.90;27.10;21.40;95507.00;;;;10271430;28;46678;-62
2021/12/16 21:10:44;;;;;;;1.30;0.80;;;20.90;27.00;21.40;95498.00;;;;10273489;28;46705;-61
2021/12/16 21:15:47;;;;;;;1.08;0.90;;;20.90;27.00;21.40;95496.00;;;;10274196;28;46571;-61
2021/12/16 21:20:48;;;;;;;1.65;1.08;;;20.90;27.00;21.40;95507.00;;;;10274275;28;48414;-61
2021/12/16 21:25:50;;;;;;;1.67;0.95;;;20.90;27.00;21.30;95488.00;;;;10273726;28;45550;-61
2021/12/16 21:30:54;;;;;;;1.25;1.13;;;20.90;26.90;21.30;95487.00;;;;10257105;28;46974;-62
2021/12/16 21:36:03;;;;;;;1.65;1.00;;;20.80;26.90;21.30;95479.00;;;;10273645;28;45236;-62
2021/12/16 21:41:08;;;;;;;1.88;0.98;;;20.80;26.80;21.20;95493.00;;;;10275116;28;48265;-61
2021/12/16 21:46:10;;;;;;;1.20;1.00;;;20.70;26.80;21.20;95470.00;;;;10274055;28;45221;-61
2021/12/16 21:51:13;;;;;;;0.95;0.85;;;20.80;26.80;21.20;95494.00;;;;10274788;28;45508;-61
2021/12/16 21:56:14;;;;;;;1.50;0.82;;;20.70;26.80;21.10;95487.00;;;;10272687;28;47114;-62
2021/12/16 22:01:18;;;;;;;1.40;0.95;;;20.70;26.80;21.10;95496.00;;;;10273787;28;45549;-62
2021/12/16 22:06:20;;;;;;;1.00;0.90;;;20.60;26.80;21.10;95484.00;;;;10271776;28;45186;-61
2021/12/16 22:11:23;;;;;;;1.13;0.90;;;20.60;26.80;21.10;95494.00;;;;10272954;28;47980;-62
2021/12/16 22:16:26;;;;;;;1.27;0.95;;;20.60;26.90;21.10;95475.00;;;;10272085;28;48245;-62
2021/12/16 22:21:38;;;;;;;1.25;0.90;;;20.60;26.80;21.10;95506.00;;;;10272867;28;45414;-62
2021/12/16 22:26:39;;;;;;;1.35;0.90;;;20.60;26.90;21.00;95490.00;;;;10272066;28;45348;-61
2021/12/16 22:31:43;;;;;;;1.75;0.98;;;20.60;26.80;21.00;95489.00;;;;10273053;28;45425;-63
2021/12/16 22:36:58;;;;;;;1.35;0.98;;;20.60;26.90;21.00;95481.00;;;;10271747;28;46929;-61
2021/12/16 22:42:04;;;;;;;1.38;0.80;;;20.50;26.80;21.00;95482.00;;;;10256168;28;47464;-62
2021/12/16 22:47:06;;;;;;;0.88;0.70;;;20.60;26.90;21.00;95499.00;;;;10271622;28;45911;-61
2021/12/16 22:52:08;;;;;;;0.98;0.88;;;20.60;26.90;21.00;95500.00;;;;10271944;28;45999;-61
2021/12/16 22:57:09;;;;;;;1.33;1.00;;;20.50;26.80;21.00;95503.00;;;;10271921;28;45304;-62
2021/12/16 23:02:15;;;;;;;1.05;0.70;;;20.50;26.80;21.00;95497.00;;;;10271401;28;47105;-61
2021/12/16 23:07:16;;;;;;;0.52;0.52;;;20.50;26.90;20.90;95501.00;;;;10271433;28;47214;-61
2021/12/16 23:12:22;;;;;;;1.15;0.70;;;20.50;26.90;20.90;95494.00;;;;10271544;28;45538;-62
2021/12/16 23:17:46;;;;;;;1.42;0.73;;;20.50;26.90;20.90;95484.00;;;;10270608;28;45508;-61
2021/12/16 23:22:55;;;;;;;0.65;0.65;;;20.40;26.90;20.90;95499.00;;;;10271833;28;45204;-61
2021/12/16 23:28:01;;;;;;;0.73;0.70;;;20.40;26.80;20.90;95483.00;;;;10271834;28;45469;-61
2021/12/16 23:33:03;;;;;;;;;;;20.50;26.90;20.90;95490.00;;;;10270946;28;46494;-62
2021/12/16 23:38:18;;;;;;;0.95;0.68;;;20.40;26.80;20.80;95480.00;;;;10269872;28;46130;-61
2021/12/16 23:53:39;;;;;;;0.80;0.63;;;20.40;26.90;20.80;95484.00;;;;10270898;28;45202;-61
2021/12/16 23:58:39;;;;;;;0.70;0.70;;;20.40;26.90;20.80;95480.00;;;;10271106;28;46231;-61
